Time;durP1;ratioP1;P1;durP2;ratioP2;P2;SDS_P1;SDS_P2;PMS_P1;PMS_P2;Temp;Humidity;BMP_temperature;BMP_pressure;BME280_temperature;BME280_humidity;BME280_pressure;Samples;Min_cycle;Max_cycle;Signal;HPM_P1;HPM_P2
2023/06/30 00:00:18;;;;;;;2.22;1.08;;;12.50;99.90;;;;;;5084828;28;20036;-65
2023/06/30 00:02:46;;;;;;;1.95;0.95;;;12.40;99.90;;;;;;5091833;28;20063;-66
2023/06/30 00:05:13;;;;;;;3.15;0.88;;;12.40;99.90;;;;;;5091184;28;20044;-66
2023/06/30 00:07:40;;;;;;;1.85;0.57;;;12.30;99.90;;;;;;5091154;28;20472;-65
2023/06/30 00:10:07;;;;;;;1.52;0.90;;;12.20;99.90;;;;;;5090065;28;20043;-65
2023/06/30 00:12:33;;;;;;;1.08;0.70;;;12.20;99.90;;;;;;5090907;28;20119;-65
2023/06/30 00:15:00;;;;;;;4.95;0.77;;;12.10;99.90;;;;;;5080392;28;20032;-66
2023/06/30 00:17:26;;;;;;;1.35;0.55;;;12.10;99.90;;;;;;5070247;28;20489;-66
2023/06/30 00:19:52;;;;;;;5.47;0.57;;;12.10;99.90;;;;;;5070463;28;20064;-65
2023/06/30 00:22:21;;;;;;;1.13;0.80;;;12.00;99.90;;;;;;5071769;28;20048;-65
2023/06/30 00:24:53;;;;;;;0.95;0.50;;;12.00;99.90;;;;;;5069963;28;20131;-66
2023/06/30 00:27:19;;;;;;;3.20;0.80;;;11.90;99.90;;;;;;5071881;28;20045;-65
2023/06/30 00:29:45;;;;;;;0.45;0.45;;;11.90;99.90;;;;;;5071610;28;20131;-65
2023/06/30 00:32:11;;;;;;;0.90;0.80;;;11.90;99.90;;;;;;5071153;28;20354;-65
2023/06/30 00:34:37;;;;;;;2.25;0.60;;;11.90;99.90;;;;;;5070271;28;20036;-65
2023/06/30 00:37:03;;;;;;;1.50;0.73;;;11.90;99.90;;;;;;5071573;28;20039;-65
2023/06/30 00:39:29;;;;;;;3.53;0.52;;;11.90;99.90;;;;;;5069869;28;20043;-65
2023/06/30 00:41:54;;;;;;;3.15;0.80;;;11.90;99.90;;;;;;5070356;28;20544;-65
2023/06/30 00:44:20;;;;;;;2.13;0.40;;;11.90;99.90;;;;;;5070033;28;20389;-65
2023/06/30 00:46:46;;;;;;;1.25;0.60;;;11.90;99.90;;;;;;5070918;28;20029;-65
2023/06/30 00:49:12;;;;;;;1.00;0.60;;;11.80;99.90;;;;;;5070055;28;20408;-65
2023/06/30 00:51:38;;;;;;;0.73;0.50;;;11.80;99.90;;;;;;5069352;28;20040;-65
2023/06/30 00:54:04;;;;;;;0.82;0.57;;;11.80;99.90;;;;;;5069682;28;20092;-65
2023/06/30 00:56:30;;;;;;;2.47;1.15;;;11.80;99.90;;;;;;5069825;28;20079;-65
2023/06/30 00:58:57;;;;;;;0.65;0.50;;;11.70;99.90;;;;;;5072298;28;20044;-65
2023/06/30 01:02:08;;;;;;;2.78;0.80;;;11.70;99.90;;;;;;5090096;28;20031;-65
2023/06/30 01:04:51;;;;;;;1.60;0.50;;;11.60;99.90;;;;;;5087658;28;20056;-65
2023/06/30 01:07:30;;;;;;;1.70;0.60;;;11.50;99.90;;;;;;5089543;28;20048;-65
2023/06/30 01:10:17;;;;;;;0.70;0.50;;;11.40;99.90;;;;;;5089932;28;20492;-65
2023/06/30 01:12:44;;;;;;;2.78;1.10;;;11.40;99.90;;;;;;5050325;28;20056;-65
2023/06/30 01:15:14;;;;;;;1.70;0.77;;;11.40;99.90;;;;;;5043495;28;20048;-65
2023/06/30 01:17:46;;;;;;;1.60;0.68;;;11.30;99.90;;;;;;5069458;28;20041;-65
2023/06/30 01:20:16;;;;;;;0.55;0.55;;;11.30;99.90;;;;;;5070266;28;20064;-65
2023/06/30 01:23:06;;;;;;;0.95;0.70;;;11.30;99.90;;;;;;5068677;28;20048;-65
2023/06/30 01:25:31;;;;;;;2.63;0.65;;;11.20;99.90;;;;;;5053008;28;20043;-65
2023/06/30 01:27:59;;;;;;;3.63;0.65;;;11.20;99.90;;;;;;5070050;28;20404;-65
2023/06/30 01:30:29;;;;;;;2.15;0.75;;;11.10;99.90;;;;;;5069207;28;20036;-65
2023/06/30 01:32:56;;;;;;;5.93;0.55;;;11.10;99.90;;;;;;5069310;28;20037;-65
2023/06/30 01:35:22;;;;;;;1.20;0.68;;;11.00;99.90;;;;;;5052252;28;20086;-65
2023/06/30 01:37:48;;;;;;;1.05;0.75;;;11.00;99.90;;;;;;5070423;28;20505;-65
2023/06/30 01:40:15;;;;;;;1.08;0.60;;;11.00;99.90;;;;;;5069177;28;20040;-65
2023/06/30 01:42:41;;;;;;;0.73;0.43;;;10.90;99.90;;;;;;5052138;28;20618;-65
2023/06/30 01:45:09;;;;;;;0.65;0.55;;;10.90;99.90;;;;;;5070700;28;20059;-65
2023/06/30 01:47:36;;;;;;;1.08;0.60;;;10.80;99.90;;;;;;5051733;28;20051;-65
2023/06/30 01:50:02;;;;;;;1.33;0.60;;;10.80;99.90;;;;;;5069239;28;20051;-65
2023/06/30 01:52:28;;;;;;;1.02;0.40;;;10.70;99.90;;;;;;5069917;28;20063;-65
2023/06/30 01:54:54;;;;;;;1.20;0.60;;;10.60;99.90;;;;;;5068441;28;20492;-65
2023/06/30 01:57:21;;;;;;;1.48;0.47;;;10.60;99.90;;;;;;5068945;28;20049;-65
2023/06/30 01:59:47;;;;;;;1.55;0.60;;;10.60;99.90;;;;;;5080274;28;20112;-65
2023/06/30 02:02:12;;;;;;;1.58;0.70;;;10.50;99.90;;;;;;5088497;28;20040;-65
2023/06/30 02:04:38;;;;;;;0.98;0.70;;;10.60;99.90;;;;;;5090431;28;20044;-65
2023/06/30 02:07:04;;;;;;;2.17;0.85;;;10.50;99.90;;;;;;5064004;28;20055;-65
2023/06/30 02:09:30;;;;;;;0.60;0.50;;;10.50;99.90;;;;;;5069740;28;20098;-65
2023/06/30 02:11:56;;;;;;;2.40;0.80;;;10.50;99.90;;;;;;5069494;28;20495;-65
2023/06/30 02:14:22;;;;;;;1.10;0.63;;;10.50;99.90;;;;;;5070319;28;20040;-65
2023/06/30 02:16:48;;;;;;;0.80;0.63;;;10.50;99.90;;;;;;5068186;28;20052;-65
2023/06/30 02:19:14;;;;;;;0.82;0.38;;;10.50;99.90;;;;;;5070290;28;20048;-65
2023/06/30 02:21:41;;;;;;;0.77;0.50;;;10.50;99.90;;;;;;5052037;28;20499;-65
2023/06/30 02:24:08;;;;;;;1.70;0.63;;;10.50;99.90;;;;;;5068499;28;20044;-65
2023/06/30 02:26:34;;;;;;;0.88;0.63;;;10.40;99.90;;;;;;5069945;28;20064;-65
2023/06/30 02:28:59;;;;;;;0.95;0.57;;;10.40;99.90;;;;;;5069043;28;20448;-64
2023/06/30 02:31:25;;;;;;;0.60;0.40;;;10.40;99.90;;;;;;5069506;28;20499;-64
2023/06/30 02:33:53;;;;;;;0.73;0.43;;;10.40;99.90;;;;;;5070436;28;20388;-64
2023/06/30 02:36:19;;;;;;;2.20;1.00;;;10.30;99.90;;;;;;5072825;28;20051;-64
2023/06/30 02:38:45;;;;;;;0.95;0.50;;;10.30;99.90;;;;;;5072212;28;20055;-64
2023/06/30 02:41:11;;;;;;;1.77;1.00;;;10.30;99.90;;;;;;5072440;28;20536;-64
2023/06/30 02:43:36;;;;;;;1.08;0.70;;;10.30;99.90;;;;;;5072075;28;20059;-65
2023/06/30 02:46:02;;;;;;;2.47;0.75;;;10.30;99.90;;;;;;5072547;28;20389;-65
2023/06/30 02:48:29;;;;;;;1.58;0.65;;;10.20;99.90;;;;;;5072471;28;20396;-65
2023/06/30 02:50:54;;;;;;;0.77;0.60;;;10.20;99.90;;;;;;5071650;28;20051;-64
2023/06/30 02:53:20;;;;;;;0.98;0.50;;;10.20;99.90;;;;;;5072004;28;20056;-64
2023/06/30 02:55:46;;;;;;;1.70;0.70;;;10.20;99.90;;;;;;5072067;28;20603;-64
2023/06/30 02:58:12;;;;;;;1.15;0.70;;;10.20;99.90;;;;;;5071764;28;20040;-65
2023/06/30 03:00:39;;;;;;;1.02;0.73;;;10.20;99.90;;;;;;5091081;28;20043;-64
2023/06/30 03:03:05;;;;;;;1.65;0.60;;;10.20;99.90;;;;;;5086144;28;20040;-64
2023/06/30 03:05:33;;;;;;;1.25;0.82;;;10.20;99.90;;;;;;5072710;28;20401;-64
2023/06/30 03:07:59;;;;;;;4.65;0.77;;;10.20;99.90;;;;;;5072265;28;20455;-64
2023/06/30 03:10:25;;;;;;;1.48;0.55;;;10.20;99.90;;;;;;5073019;28;20041;-64
2023/06/30 03:12:51;;;;;;;0.70;0.47;;;10.20;99.90;;;;;;5071348;28;20055;-64
2023/06/30 03:15:17;;;;;;;0.77;0.40;;;10.20;99.90;;;;;;5071862;28;20417;-64
2023/06/30 03:17:43;;;;;;;0.75;0.47;;;10.20;99.90;;;;;;5072055;28;20444;-64
2023/06/30 03:20:12;;;;;;;1.08;0.43;;;10.10;99.90;;;;;;5072565;28;20041;-64
2023/06/30 03:22:42;;;;;;;0.83;0.50;;;10.10;99.90;;;;;;5071700;28;20036;-64
2023/06/30 03:25:08;;;;;;;0.70;0.50;;;10.10;99.90;;;;;;5071664;28;20515;-64
2023/06/30 03:27:35;;;;;;;0.88;0.60;;;10.10;99.90;;;;;;5072219;28;20484;-64
2023/06/30 03:30:04;;;;;;;0.73;0.50;;;10.00;99.90;;;;;;5071571;28;20044;-64
2023/06/30 03:32:30;;;;;;;0.77;0.60;;;10.00;99.90;;;;;;5072235;28;20048;-64
2023/06/30 03:34:56;;;;;;;0.57;0.35;;;10.00;99.90;;;;;;5071392;28;20119;-64
2023/06/30 03:37:22;;;;;;;0.93;0.60;;;10.00;99.90;;;;;;5072567;28;20167;-64
2023/06/30 03:39:48;;;;;;;0.80;0.70;;;10.00;99.90;;;;;;5071106;28;20072;-64
2023/06/30 03:42:14;;;;;;;2.00;0.93;;;9.90;99.90;;;;;;5055011;28;20156;-64
2023/06/30 03:44:40;;;;;;;1.05;0.45;;;9.90;99.90;;;;;;5071254;28;20736;-64
2023/06/30 03:47:06;;;;;;;2.00;1.15;;;10.00;99.90;;;;;;5070185;28;20134;-64
2023/06/30 03:49:32;;;;;;;2.88;0.65;;;9.90;99.90;;;;;;5071463;28;20052;-64
2023/06/30 03:51:58;;;;;;;0.80;0.60;;;9.90;99.90;;;;;;5071066;28;20473;-64
2023/06/30 03:54:23;;;;;;;1.38;0.63;;;9.90;99.90;;;;;;5070276;28;20052;-64
2023/06/30 03:56:49;;;;;;;0.60;0.50;;;9.90;99.90;;;;;;5071141;28;20102;-64
2023/06/30 03:59:16;;;;;;;1.55;0.90;;;10.00;99.90;;;;;;5072622;28;20089;-64
2023/06/30 04:01:42;;;;;;;2.08;0.90;;;10.10;99.90;;;;;;5070625;28;20675;-63
2023/06/30 04:04:08;;;;;;;1.73;0.88;;;10.20;99.90;;;;;;5070987;28;20106;-64
2023/06/30 04:06:36;;;;;;;2.00;0.75;;;10.20;99.90;;;;;;5070548;28;20040;-64
2023/06/30 04:09:02;;;;;;;6.28;1.60;;;10.30;99.90;;;;;;5069150;28;20124;-64
2023/06/30 04:11:28;;;;;;;4.88;0.85;;;10.30;99.90;;;;;;5069992;28;20071;-64
2023/06/30 04:13:54;;;;;;;1.52;0.93;;;10.40;99.90;;;;;;5070848;28;20536;-64
2023/06/30 04:16:20;;;;;;;1.77;0.90;;;10.40;99.90;;;;;;5069173;28;20131;-64
2023/06/30 04:18:46;;;;;;;1.30;0.55;;;10.50;99.90;;;;;;5069565;28;20076;-64
2023/06/30 04:21:12;;;;;;;3.50;0.80;;;10.50;99.90;;;;;;5070712;28;20036;-64
2023/06/30 04:23:37;;;;;;;2.67;0.85;;;10.60;99.90;;;;;;5068784;28;20048;-64
2023/06/30 04:26:06;;;;;;;7.28;1.30;;;10.70;99.90;;;;;;5051951;28;20040;-64
2023/06/30 04:28:32;;;;;;;1.60;0.82;;;10.70;99.90;;;;;;5071158;28;20055;-64
2023/06/30 04:31:03;;;;;;;1.63;0.40;;;10.80;99.90;;;;;;5071418;28;20037;-64
2023/06/30 04:33:29;;;;;;;2.85;1.10;;;10.90;99.90;;;;;;5071614;28;20076;-64
2023/06/30 04:35:54;;;;;;;1.08;0.52;;;11.00;99.90;;;;;;5069619;28;20076;-64
2023/06/30 04:38:20;;;;;;;3.00;0.57;;;11.00;99.90;;;;;;5071400;28;20032;-64
2023/06/30 04:40:49;;;;;;;2.85;0.75;;;11.10;99.90;;;;;;5070001;28;20044;-64
2023/06/30 04:43:15;;;;;;;3.00;1.20;;;11.20;99.90;;;;;;5069655;28;20062;-64
2023/06/30 04:45:42;;;;;;;4.72;1.05;;;11.20;99.90;;;;;;5069931;28;20488;-64
2023/06/30 04:48:08;;;;;;;2.47;1.27;;;11.40;99.90;;;;;;5070088;28;20040;-64
2023/06/30 04:50:35;;;;;;;2.35;1.02;;;11.50;99.90;;;;;;5069501;28;20044;-64
2023/06/30 04:53:01;;;;;;;1.38;0.75;;;11.70;99.90;;;;;;5069420;28;20057;-64
2023/06/30 04:55:26;;;;;;;2.30;0.85;;;11.80;99.90;;;;;;5067588;28;20047;-64
2023/06/30 04:57:56;;;;;;;1.73;0.98;;;12.00;99.90;;;;;;5067091;28;20036;-64
2023/06/30 05:00:26;;;;;;;1.85;0.60;;;12.10;99.90;;;;;;5059080;28;20490;-65
2023/06/30 05:02:53;;;;;;;3.00;1.15;;;12.20;99.90;;;;;;5049902;28;20535;-65
2023/06/30 05:05:18;;;;;;;3.58;1.00;;;12.40;99.90;;;;;;5048355;28;20103;-65
2023/06/30 05:07:45;;;;;;;1.08;0.60;;;12.50;99.90;;;;;;5048654;28;20428;-65
2023/06/30 05:10:11;;;;;;;3.92;1.20;;;12.70;99.90;;;;;;5048843;28;20053;-65
2023/06/30 05:12:37;;;;;;;1.75;0.85;;;12.90;99.90;;;;;;5047956;28;20052;-65
2023/06/30 05:15:04;;;;;;;4.00;0.73;;;13.00;99.90;;;;;;5049769;28;20041;-65
2023/06/30 05:17:30;;;;;;;3.70;0.88;;;13.20;99.90;;;;;;5047820;28;20486;-65
2023/06/30 05:19:55;;;;;;;2.75;1.10;;;13.30;99.90;;;;;;5049660;28;20043;-65
2023/06/30 05:22:21;;;;;;;3.60;0.95;;;13.40;99.90;;;;;;5048363;28;20136;-65
2023/06/30 05:24:47;;;;;;;3.85;1.00;;;13.60;99.90;;;;;;5031444;28;20032;-65
2023/06/30 05:27:14;;;;;;;0.95;0.57;;;13.70;99.90;;;;;;5048262;28;20481;-65
2023/06/30 05:29:40;;;;;;;1.98;1.23;;;13.80;99.90;;;;;;5049488;28;20076;-65
2023/06/30 05:32:07;;;;;;;1.92;0.82;;;14.00;99.90;;;;;;5047641;28;20079;-65
2023/06/30 05:34:33;;;;;;;1.60;1.02;;;14.10;99.90;;;;;;5048071;28;20086;-66
2023/06/30 05:36:59;;;;;;;1.40;0.57;;;14.20;99.90;;;;;;5048971;28;20036;-65
2023/06/30 05:39:24;;;;;;;4.40;0.90;;;14.30;99.90;;;;;;5048798;28;20048;-65
2023/06/30 05:41:50;;;;;;;1.80;0.70;;;14.50;99.90;;;;;;5049092;28;20512;-65
2023/06/30 05:44:16;;;;;;;1.40;0.80;;;14.60;99.90;;;;;;5031671;28;20334;-65
2023/06/30 05:46:42;;;;;;;0.73;0.52;;;14.70;99.90;;;;;;5047613;28;20389;-64
2023/06/30 05:49:08;;;;;;;3.20;0.60;;;14.90;99.90;;;;;;5049394;28;20513;-64
2023/06/30 05:51:35;;;;;;;0.75;0.60;;;15.00;99.90;;;;;;5050701;28;20048;-64
2023/06/30 05:54:04;;;;;;;3.13;0.65;;;15.20;99.90;;;;;;5066901;28;20056;-65
2023/06/30 05:56:31;;;;;;;3.20;0.50;;;15.40;99.90;;;;;;5067729;28;20048;-65
2023/06/30 05:58:58;;;;;;;2.03;0.55;;;15.50;99.90;;;;;;5071341;28;20461;-65
2023/06/30 06:01:24;;;;;;;0.90;0.50;;;15.70;99.90;;;;;;5087740;28;20040;-65
2023/06/30 06:03:50;;;;;;;0.45;0.40;;;15.80;99.90;;;;;;5065128;28;20050;-65
2023/06/30 06:06:16;;;;;;;1.38;0.45;;;16.00;99.90;;;;;;5067543;28;20063;-65
2023/06/30 06:08:46;;;;;;;2.20;0.40;;;16.10;99.90;;;;;;5068462;28;20044;-65
2023/06/30 06:11:13;;;;;;;0.40;0.32;;;16.20;99.90;;;;;;5071969;28;20076;-64
2023/06/30 06:13:39;;;;;;;1.10;0.63;;;16.40;99.90;;;;;;5072425;28;20539;-64
2023/06/30 06:16:07;;;;;;;2.00;0.32;;;16.50;99.90;;;;;;5072047;28;20048;-65
2023/06/30 06:18:33;;;;;;;2.90;0.63;;;16.60;99.90;;;;;;5072957;28;20040;-65
2023/06/30 06:21:01;;;;;;;1.38;0.60;;;16.60;99.90;;;;;;5072426;28;20040;-65
2023/06/30 06:23:27;;;;;;;1.65;0.50;;;16.60;99.90;;;;;;5073422;28;20040;-64
2023/06/30 06:25:53;;;;;;;1.42;0.60;;;16.70;99.90;;;;;;5073041;28;20047;-65
2023/06/30 06:28:19;;;;;;;0.63;0.40;;;16.80;99.90;;;;;;5072204;28;20044;-64
2023/06/30 06:30:45;;;;;;;0.90;0.35;;;16.90;99.90;;;;;;5073021;28;20033;-65
2023/06/30 06:33:11;;;;;;;1.55;0.32;;;16.90;99.90;;;;;;5072671;28;20127;-64
2023/06/30 06:35:37;;;;;;;4.20;0.73;;;17.00;99.90;;;;;;5070870;28;20123;-64
2023/06/30 06:38:03;;;;;;;1.45;0.32;;;17.20;99.90;;;;;;5071586;28;20037;-64
2023/06/30 06:40:29;;;;;;;3.75;0.40;;;17.30;99.90;;;;;;5071336;28;20072;-64
2023/06/30 06:42:56;;;;;;;1.30;0.57;;;17.40;99.90;;;;;;5071792;28;20048;-64
2023/06/30 06:45:22;;;;;;;0.47;0.30;;;17.50;99.90;;;;;;5071263;28;20055;-65
2023/06/30 06:48:22;;;;;;;1.15;0.40;;;17.60;99.90;;;;;;5069874;28;20044;-64
2023/06/30 06:50:52;;;;;;;1.33;0.55;;;17.80;99.90;;;;;;5070601;28;20040;-65
2023/06/30 06:53:38;;;;;;;0.57;0.30;;;18.10;99.90;;;;;;5066179;28;20589;-65
2023/06/30 06:56:05;;;;;;;0.95;0.38;;;18.40;99.90;;;;;;5060221;28;20041;-65
2023/06/30 06:58:35;;;;;;;0.80;0.32;;;18.40;99.90;;;;;;5069951;28;20098;-65
2023/06/30 07:01:01;;;;;;;1.00;0.63;;;18.30;99.90;;;;;;5091445;28;20469;-65
2023/06/30 07:03:27;;;;;;;1.20;0.52;;;18.20;99.90;;;;;;5091914;28;20437;-65
2023/06/30 07:05:53;;;;;;;0.32;0.25;;;18.10;99.90;;;;;;5091464;28;20131;-65
2023/06/30 07:08:19;;;;;;;2.58;0.45;;;18.20;99.90;;;;;;5052222;28;20103;-65
2023/06/30 07:10:46;;;;;;;0.55;0.40;;;18.30;99.90;;;;;;5052753;28;20076;-65
2023/06/30 07:13:16;;;;;;;1.27;0.40;;;18.30;99.90;;;;;;5034241;28;20033;-65
2023/06/30 07:15:41;;;;;;;4.50;0.50;;;18.30;99.90;;;;;;5050866;28;20041;-65
2023/06/30 07:18:07;;;;;;;0.65;0.30;;;18.40;99.90;;;;;;5054072;28;20418;-65
2023/06/30 07:20:33;;;;;;;1.73;0.82;;;18.70;99.90;;;;;;5050713;28;20036;-65
2023/06/30 07:22:59;;;;;;;6.55;0.65;;;19.00;99.90;;;;;;5050585;28;20044;-65
2023/06/30 07:25:26;;;;;;;0.55;0.20;;;19.20;99.90;;;;;;5051371;28;20147;-66
2023/06/30 07:27:54;;;;;;;0.40;0.20;;;19.30;99.90;;;;;;5054401;28;20137;-65
2023/06/30 07:30:29;;;;;;;0.30;0.30;;;19.20;99.90;;;;;;5050728;28;20370;-65
2023/06/30 07:32:55;;;;;;;1.75;0.30;;;19.00;99.90;;;;;;5051585;28;20098;-65
2023/06/30 07:35:22;;;;;;;0.47;0.30;;;19.10;99.90;;;;;;5050630;28;20047;-65
2023/06/30 07:37:49;;;;;;;1.50;0.35;;;19.40;99.90;;;;;;5033063;28;20707;-65
2023/06/30 07:40:16;;;;;;;0.52;0.32;;;19.80;99.90;;;;;;5050231;28;20525;-65
2023/06/30 07:42:43;;;;;;;1.27;0.43;;;20.00;99.90;;;;;;5050244;28;20044;-66
2023/06/30 07:45:11;;;;;;;0.90;0.47;;;20.30;99.90;;;;;;5044427;28;20072;-66
2023/06/30 07:47:40;;;;;;;2.38;0.30;;;20.40;99.90;;;;;;5070096;28;20559;-65
2023/06/30 07:50:11;;;;;;;0.73;0.40;;;20.50;99.90;;;;;;5050289;28;20493;-65
2023/06/30 07:52:44;;;;;;;3.47;0.57;;;20.60;99.90;;;;;;5050617;28;20073;-65
2023/06/30 07:55:17;;;;;;;0.30;0.20;;;20.80;99.90;;;;;;5050200;28;20782;-66
2023/06/30 07:57:44;;;;;;;0.88;0.70;;;21.00;99.90;;;;;;5051177;28;20397;-66
2023/06/30 08:00:15;;;;;;;0.90;0.40;;;21.20;99.90;;;;;;5078182;28;20437;-66
2023/06/30 08:02:41;;;;;;;1.92;0.25;;;21.40;99.90;;;;;;5090395;28;20427;-66
2023/06/30 08:05:08;;;;;;;2.05;0.25;;;21.40;99.90;;;;;;5073212;28;20051;-66
2023/06/30 08:07:34;;;;;;;2.05;0.30;;;21.40;99.90;;;;;;5072798;28;20057;-66
2023/06/30 08:10:00;;;;;;;3.75;0.73;;;21.60;99.90;;;;;;5089996;28;20040;-65
2023/06/30 08:12:26;;;;;;;3.72;0.63;;;21.80;99.90;;;;;;5073120;28;20392;-64
2023/06/30 08:14:52;;;;;;;2.05;0.30;;;22.00;99.90;;;;;;5091134;28;20042;-66
2023/06/30 08:17:18;;;;;;;1.00;0.60;;;22.20;99.90;;;;;;5089740;28;20488;-66
2023/06/30 08:19:44;;;;;;;1.85;0.45;;;22.20;99.90;;;;;;5089414;28;20032;-65
2023/06/30 08:22:13;;;;;;;0.50;0.10;;;22.00;99.90;;;;;;5089960;28;20036;-64
2023/06/30 08:24:43;;;;;;;0.30;0.20;;;22.10;99.90;;;;;;5089850;28;20101;-65
2023/06/30 08:27:09;;;;;;;0.70;0.20;;;22.20;99.90;;;;;;5089096;28;20044;-65
2023/06/30 08:29:37;;;;;;;1.08;0.50;;;22.20;99.90;;;;;;5089593;28;20044;-64
2023/06/30 08:32:03;;;;;;;0.10;0.10;;;22.00;99.90;;;;;;5089161;28;20046;-64
2023/06/30 08:34:29;;;;;;;2.13;0.20;;;21.70;99.90;;;;;;5089036;28;20451;-64
2023/06/30 08:36:56;;;;;;;1.13;0.50;;;21.30;99.90;;;;;;5089727;28;20048;-65
2023/06/30 08:39:23;;;;;;;1.52;0.43;;;20.80;99.90;;;;;;5090432;28;20563;-65
2023/06/30 08:41:54;;;;;;;1.33;0.40;;;20.40;99.90;;;;;;5072084;28;20036;-65
2023/06/30 08:44:23;;;;;;;2.88;0.40;;;20.60;99.90;;;;;;5069098;28;20465;-64
2023/06/30 08:46:52;;;;;;;1.23;0.70;;;21.10;99.90;;;;;;5070336;28;20041;-64
2023/06/30 08:49:19;;;;;;;0.30;0.10;;;21.70;99.90;;;;;;5068474;28;20050;-65
2023/06/30 08:51:46;;;;;;;0.50;0.30;;;22.10;99.90;;;;;;5069920;28;20048;-61
2023/06/30 08:54:12;;;;;;;0.63;0.28;;;22.20;99.90;;;;;;5068537;28;20056;-65
2023/06/30 08:56:42;;;;;;;0.40;0.22;;;21.90;99.90;;;;;;5069669;28;20532;-64
2023/06/30 08:59:08;;;;;;;0.70;0.52;;;21.70;99.90;;;;;;5075096;28;20114;-64
2023/06/30 09:01:36;;;;;;;0.50;0.20;;;21.70;99.90;;;;;;5088656;28;20127;-65
2023/06/30 09:04:04;;;;;;;0.88;0.30;;;22.10;99.90;;;;;;5088783;28;20032;-64
2023/06/30 09:06:35;;;;;;;0.40;0.30;;;22.50;99.90;;;;;;5089085;28;20044;-65
2023/06/30 09:09:09;;;;;;;0.20;0.20;;;22.80;99.90;;;;;;5089621;28;20078;-65
2023/06/30 09:11:37;;;;;;;0.57;0.25;;;23.20;99.90;;;;;;5088895;28;20116;-65
2023/06/30 09:14:04;;;;;;;0.43;0.28;;;23.30;99.90;;;;;;5088887;28;20388;-65
2023/06/30 09:16:33;;;;;;;0.20;0.20;;;23.40;99.90;;;;;;5088060;28;20549;-65
2023/06/30 09:19:00;;;;;;;1.52;0.50;;;23.30;99.80;;;;;;5088508;28;20073;-65
2023/06/30 09:21:26;;;;;;;1.52;0.45;;;23.20;99.70;;;;;;5088757;28;20492;-65
2023/06/30 09:23:52;;;;;;;2.17;0.25;;;23.20;99.50;;;;;;5087877;28;20048;-65
2023/06/30 09:26:18;;;;;;;0.90;0.30;;;22.90;99.40;;;;;;5089874;28;20050;-65
2023/06/30 09:28:45;;;;;;;0.40;0.20;;;22.60;99.20;;;;;;5089769;28;20488;-64
2023/06/30 09:31:12;;;;;;;0.75;0.47;;;22.50;99.30;;;;;;5087951;28;20480;-65
2023/06/30 09:33:42;;;;;;;1.55;0.25;;;22.60;99.30;;;;;;5087958;28;20431;-64
2023/06/30 09:36:08;;;;;;;0.98;0.30;;;22.90;99.20;;;;;;5088610;28;20133;-64
2023/06/30 09:38:35;;;;;;;0.90;0.30;;;23.40;99.40;;;;;;5067111;28;20076;-65
2023/06/30 09:41:05;;;;;;;1.58;0.52;;;23.60;98.30;;;;;;5068035;28;20119;-64
2023/06/30 09:43:32;;;;;;;1.17;0.32;;;23.30;98.00;;;;;;5067070;28;20048;-64
2023/06/30 09:45:59;;;;;;;1.00;0.40;;;23.00;97.70;;;;;;5070182;28;20574;-64
2023/06/30 09:48:43;;;;;;;1.48;0.28;;;22.90;97.40;;;;;;5070523;28;20127;-65
2023/06/30 09:51:10;;;;;;;0.80;0.30;;;23.00;96.40;;;;;;5068700;28;20044;-63
2023/06/30 09:53:41;;;;;;;1.45;0.40;;;23.40;97.80;;;;;;5052152;28;20072;-66
2023/06/30 09:56:12;;;;;;;0.47;0.30;;;23.80;97.10;;;;;;5069103;28;20051;-64
2023/06/30 09:58:39;;;;;;;0.70;0.32;;;24.00;96.60;;;;;;5070176;28;20036;-65
2023/06/30 10:01:05;;;;;;;1.02;0.28;;;24.40;96.10;;;;;;5089170;28;20105;-65
2023/06/30 10:03:30;;;;;;;0.30;0.20;;;24.60;95.50;;;;;;5089168;28;20056;-65
2023/06/30 10:05:57;;;;;;;0.60;0.52;;;24.60;94.60;;;;;;5088575;28;20036;-65
2023/06/30 10:08:24;;;;;;;1.98;0.50;;;24.50;94.90;;;;;;5089158;28;20422;-65
2023/06/30 10:10:56;;;;;;;1.00;0.50;;;24.70;95.10;;;;;;5090388;28;20044;-64
2023/06/30 10:13:23;;;;;;;1.17;0.32;;;25.00;94.40;;;;;;5088249;28;20495;-65
2023/06/30 10:15:51;;;;;;;2.38;0.57;;;25.20;94.20;;;;;;5072205;28;20078;-64
2023/06/30 10:18:18;;;;;;;1.25;0.50;;;25.00;93.30;;;;;;5088960;28;20504;-64
2023/06/30 10:20:44;;;;;;;4.30;0.80;;;24.80;93.60;;;;;;5089549;28;20392;-65
2023/06/30 10:23:11;;;;;;;3.03;0.88;;;24.80;94.30;;;;;;5089063;28;20055;-65
2023/06/30 10:25:38;;;;;;;0.68;0.30;;;25.00;93.60;;;;;;5088010;28;20044;-65
2023/06/30 10:28:08;;;;;;;0.65;0.43;;;24.90;92.90;;;;;;5089160;28;20079;-65
2023/06/30 10:30:35;;;;;;;2.35;0.40;;;24.50;91.90;;;;;;5072018;28;20036;-65
2023/06/30 10:33:01;;;;;;;0.90;0.57;;;23.90;90.60;;;;;;5083514;28;20481;-65
2023/06/30 10:35:28;;;;;;;0.82;0.45;;;23.20;91.60;;;;;;5068595;28;20045;-65
2023/06/30 10:37:55;;;;;;;1.75;0.63;;;22.70;92.10;;;;;;5051851;28;20047;-64
2023/06/30 10:40:26;;;;;;;2.60;0.65;;;22.50;92.70;;;;;;5051413;28;20044;-64
2023/06/30 10:42:55;;;;;;;3.65;0.70;;;22.60;92.90;;;;;;5069991;28;20123;-64
2023/06/30 10:45:26;;;;;;;0.60;0.47;;;22.70;93.10;;;;;;5068843;28;20048;-64
2023/06/30 10:47:52;;;;;;;0.98;0.47;;;22.90;93.00;;;;;;5051489;28;20098;-65
2023/06/30 10:50:18;;;;;;;2.35;0.85;;;23.00;93.20;;;;;;5069658;28;20044;-65
2023/06/30 10:52:54;;;;;;;1.23;0.47;;;23.20;92.10;;;;;;5069282;28;20131;-65
2023/06/30 10:55:26;;;;;;;1.33;0.63;;;23.00;92.00;;;;;;5053339;28;20041;-65
2023/06/30 10:57:53;;;;;;;0.82;0.30;;;23.20;92.30;;;;;;5072169;28;20044;-65
2023/06/30 11:00:21;;;;;;;0.40;0.30;;;23.40;92.20;;;;;;5088355;28;20111;-64
2023/06/30 11:02:58;;;;;;;2.53;0.47;;;23.30;92.00;;;;;;5075105;28;20039;-65
2023/06/30 11:05:28;;;;;;;1.30;0.52;;;23.20;91.60;;;;;;5093471;28;20458;-65
2023/06/30 11:08:07;;;;;;;0.90;0.30;;;23.10;91.70;;;;;;5091768;28;20115;-65
2023/06/30 11:10:32;;;;;;;1.40;0.95;;;23.40;92.20;;;;;;5075492;28;20047;-65
2023/06/30 11:13:09;;;;;;;1.27;0.63;;;23.80;91.70;;;;;;5092001;28;20047;-65
2023/06/30 11:15:44;;;;;;;0.52;0.40;;;24.00;90.40;;;;;;5089666;28;20093;-65
2023/06/30 11:18:23;;;;;;;1.98;0.40;;;24.00;90.00;;;;;;5073076;28;20115;-64
2023/06/30 11:21:01;;;;;;;;;;;24.30;90.40;;;;;;5073210;28;20477;-64
2023/06/30 11:23:28;;;;;;;3.22;0.60;;;24.50;90.20;;;;;;5071168;28;19917;-65
2023/06/30 11:25:58;;;;;;;1.15;0.63;;;24.60;90.50;;;;;;5071630;28;20036;-65
2023/06/30 11:28:28;;;;;;;4.15;0.82;;;24.80;90.10;;;;;;5071766;28;20040;-65
2023/06/30 11:30:54;;;;;;;0.73;0.30;;;24.70;88.70;;;;;;5071209;28;20091;-65
2023/06/30 11:33:20;;;;;;;1.98;0.80;;;24.70;88.80;;;;;;5071384;28;20080;-65
2023/06/30 11:35:51;;;;;;;0.70;0.30;;;24.70;88.00;;;;;;5071207;28;20032;-65
2023/06/30 11:38:17;;;;;;;2.70;0.57;;;24.30;84.30;;;;;;5072588;28;20044;-65
2023/06/30 11:40:49;;;;;;;2.83;0.70;;;23.80;86.60;;;;;;5071286;28;20047;-65
2023/06/30 11:43:17;;;;;;;2.35;0.40;;;23.50;87.10;;;;;;5070326;28;20485;-64
2023/06/30 11:45:43;;;;;;;0.93;0.38;;;23.40;86.80;;;;;;5071207;28;20044;-64
2023/06/30 11:48:11;;;;;;;1.83;0.65;;;23.50;87.00;;;;;;5072711;28;20112;-65
2023/06/30 11:50:37;;;;;;;1.85;0.63;;;23.70;88.20;;;;;;5070773;28;20043;-64
2023/06/30 11:53:03;;;;;;;1.77;0.30;;;24.00;88.00;;;;;;5070710;28;20432;-64
2023/06/30 11:55:29;;;;;;;0.52;0.30;;;24.00;87.50;;;;;;5071246;28;20102;-64
2023/06/30 11:57:55;;;;;;;1.40;0.40;;;24.00;87.70;;;;;;5070413;28;20512;-64
2023/06/30 12:00:23;;;;;;;3.10;0.88;;;24.00;88.00;;;;;;5069553;28;20035;-65
2023/06/30 12:02:50;;;;;;;0.90;0.40;;;23.90;87.40;;;;;;5091564;28;20040;-64
2023/06/30 12:05:23;;;;;;;1.65;0.63;;;23.70;87.00;;;;;;5091794;28;20062;-65
2023/06/30 12:07:51;;;;;;;5.47;0.57;;;23.70;86.60;;;;;;5090621;28;20376;-65
2023/06/30 12:10:18;;;;;;;2.95;0.80;;;23.60;86.90;;;;;;5092205;28;20080;-65
2023/06/30 12:12:52;;;;;;;0.93;0.40;;;23.50;86.80;;;;;;5090269;28;20051;-63
2023/06/30 12:15:18;;;;;;;1.35;0.47;;;23.30;86.30;;;;;;5091010;28;20044;-65
2023/06/30 12:17:44;;;;;;;2.00;0.60;;;23.30;88.50;;;;;;5090630;28;20042;-65
2023/06/30 12:20:11;;;;;;;0.82;0.57;;;23.50;89.40;;;;;;5073817;28;20508;-64
2023/06/30 12:22:42;;;;;;;1.20;0.60;;;23.90;86.50;;;;;;5091138;28;20102;-65
2023/06/30 12:25:13;;;;;;;1.15;0.52;;;24.10;86.10;;;;;;5088974;28;20040;-65
2023/06/30 12:27:43;;;;;;;1.17;0.38;;;24.20;84.90;;;;;;5071834;28;20048;-64
2023/06/30 12:30:17;;;;;;;1.88;0.57;;;23.90;84.30;;;;;;5070366;28;20051;-65
2023/06/30 12:32:43;;;;;;;1.58;0.80;;;23.80;85.20;;;;;;5070677;28;20195;-65
2023/06/30 12:35:11;;;;;;;0.90;0.47;;;23.70;86.90;;;;;;5054055;28;20075;-64
2023/06/30 12:37:37;;;;;;;0.75;0.50;;;23.90;86.70;;;;;;5071480;28;20048;-64
2023/06/30 12:40:05;;;;;;;1.63;0.98;;;24.10;86.90;;;;;;5069915;28;20090;-65
2023/06/30 12:42:32;;;;;;;1.55;0.60;;;24.40;86.50;;;;;;5070165;28;20048;-65
2023/06/30 12:44:58;;;;;;;2.17;0.50;;;24.50;86.50;;;;;;5070249;28;20110;-65
2023/06/30 12:47:24;;;;;;;1.95;0.60;;;24.40;84.30;;;;;;5069717;28;20040;-64
2023/06/30 12:49:50;;;;;;;1.52;0.85;;;24.10;85.20;;;;;;5070023;28;20473;-65